createdAt,value
2023-08-15T00:02:26.726Z,87.20
2023-08-15T00:04:54.982Z,87.10
2023-08-15T00:07:24.801Z,87.30
2023-08-15T00:09:53.063Z,87.40
2023-08-15T00:12:21.202Z,87.40
2023-08-15T00:14:49.325Z,87.40
2023-08-15T00:17:17.445Z,87.50
2023-08-15T00:19:46.917Z,87.50
2023-08-15T00:22:19.005Z,87.50
2023-08-15T00:24:47.089Z,87.40
2023-08-15T00:27:15.258Z,87.30
2023-08-15T00:29:43.356Z,87.10
2023-08-15T00:32:11.511Z,87.10
2023-08-15T00:34:39.592Z,87.10
2023-08-15T00:37:09.049Z,87.10
2023-08-15T00:39:37.205Z,87.20
2023-08-15T00:42:05.988Z,87.20
2023-08-15T00:44:34.086Z,87.00
2023-08-15T00:47:02.248Z,86.90
2023-08-15T00:49:30.357Z,86.90
2023-08-15T00:51:58.428Z,86.80
2023-08-15T00:54:27.894Z,86.80
2023-08-15T00:57:07.644Z,86.80
2023-08-15T00:59:35.799Z,86.90
2023-08-15T01:02:03.991Z,86.90
2023-08-15T01:04:36.879Z,86.90
2023-08-15T01:07:05.087Z,86.90
2023-08-15T01:09:34.575Z,86.80
2023-08-15T01:12:06.876Z,86.80
2023-08-15T01:14:38.450Z,86.70
2023-08-15T01:17:06.611Z,86.70
2023-08-15T01:19:37.785Z,86.70
2023-08-15T01:22:06.604Z,86.70
2023-08-15T01:24:36.668Z,86.70
2023-08-15T01:27:05.458Z,86.70
2023-08-15T01:29:33.651Z,86.70
2023-08-15T01:32:04.847Z,86.60
2023-08-15T01:34:35.470Z,86.60
2023-08-15T01:37:05.795Z,86.60
2023-08-15T01:39:35.291Z,86.60
2023-08-15T01:42:04.240Z,86.60
2023-08-15T01:44:32.799Z,86.60
2023-08-15T01:47:00.969Z,86.60
2023-08-15T01:49:29.081Z,86.60
2023-08-15T01:52:00.845Z,86.70
2023-08-15T01:54:29.570Z,86.70
2023-08-15T01:56:59.061Z,86.70
2023-08-15T01:59:27.207Z,86.70
2023-08-15T02:01:55.338Z,86.70
2023-08-15T02:04:23.494Z,86.70
2023-08-15T02:06:51.637Z,86.70
2023-08-15T02:09:19.736Z,86.70
2023-08-15T02:11:47.816Z,86.70
2023-08-15T02:14:17.285Z,86.70
2023-08-15T02:16:48.848Z,86.80
2023-08-15T02:19:16.983Z,86.80
2023-08-15T02:21:45.098Z,86.80
2023-08-15T02:24:13.230Z,86.80
2023-08-15T02:26:41.383Z,86.90
2023-08-15T02:29:09.540Z,86.90
2023-08-15T02:31:39.394Z,86.90
2023-08-15T02:34:12.877Z,87.00
2023-08-15T02:36:41.005Z,87.00
2023-08-15T02:39:09.534Z,87.00
2023-08-15T02:41:37.641Z,86.90
2023-08-15T02:44:06.277Z,86.90
2023-08-15T02:46:34.404Z,87.00
2023-08-15T02:49:03.915Z,87.00
2023-08-15T02:51:32.055Z,87.00
2023-08-15T02:54:00.170Z,87.00
2023-08-15T02:56:30.857Z,87.00
2023-08-15T02:58:59.012Z,86.90
2023-08-15T03:01:27.132Z,87.00
2023-08-15T03:03:55.270Z,87.00
2023-08-15T03:06:24.744Z,87.10
2023-08-15T03:08:52.856Z,87.20
2023-08-15T03:11:21.011Z,87.20
2023-08-15T03:13:49.206Z,87.30
2023-08-15T03:16:17.373Z,87.30
2023-08-15T03:18:45.541Z,87.40
2023-08-15T03:21:13.678Z,87.50
2023-08-15T03:23:43.226Z,87.50
2023-08-15T03:26:11.356Z,87.60
2023-08-15T03:28:39.455Z,87.60
2023-08-15T03:31:07.621Z,87.60
2023-08-15T03:33:35.787Z,87.60
2023-08-15T03:36:04.099Z,87.60
2023-08-15T03:38:32.223Z,87.50
2023-08-15T03:41:05.174Z,87.50
2023-08-15T03:43:33.398Z,87.60
2023-08-15T03:46:01.912Z,87.60
2023-08-15T03:48:31.210Z,87.50
2023-08-15T03:50:59.607Z,87.40
2023-08-15T03:53:27.785Z,87.30
2023-08-15T03:55:56.044Z,87.30
2023-08-15T03:58:25.629Z,87.20
2023-08-15T04:00:53.983Z,87.30
2023-08-15T04:03:22.101Z,87.20
2023-08-15T04:05:50.201Z,87.20
2023-08-15T04:08:18.353Z,87.10
2023-08-15T04:10:47.044Z,87.10
2023-08-15T04:13:15.521Z,87.10
2023-08-15T04:15:44.992Z,87.00
2023-08-15T04:18:13.159Z,87.10
2023-08-15T04:20:42.148Z,87.00
2023-08-15T04:23:13.100Z,87.00
2023-08-15T04:25:41.580Z,87.10
2023-08-15T04:28:09.772Z,87.00
2023-08-15T04:30:37.840Z,87.20
2023-08-15T04:33:08.464Z,87.20
2023-08-15T04:35:36.678Z,87.10
2023-08-15T04:38:05.280Z,87.00
2023-08-15T04:40:34.345Z,87.00
2023-08-15T04:43:02.602Z,87.10
2023-08-15T04:45:30.758Z,87.00
2023-08-15T04:47:59.194Z,87.00
2023-08-15T04:50:28.920Z,87.00
2023-08-15T04:52:57.011Z,87.10
2023-08-15T04:55:30.992Z,87.10
2023-08-15T04:57:59.074Z,87.10
2023-08-15T05:00:27.405Z,87.00
2023-08-15T05:02:55.543Z,87.10
2023-08-15T05:05:24.795Z,87.10
2023-08-15T05:07:56.360Z,87.10
2023-08-15T05:10:24.525Z,87.10
2023-08-15T05:12:52.665Z,87.20
2023-08-15T05:15:20.829Z,87.20
2023-08-15T05:17:51.319Z,87.30
2023-08-15T05:20:25.223Z,87.10
2023-08-15T05:22:53.356Z,87.10
2023-08-15T05:25:22.882Z,87.20
2023-08-15T05:27:51.253Z,87.10
2023-08-15T05:30:19.539Z,87.10
2023-08-15T05:32:47.803Z,87.00
2023-08-15T05:35:16.005Z,87.00
2023-08-15T05:37:44.111Z,87.10
2023-08-15T05:40:12.749Z,87.10
2023-08-15T05:42:42.244Z,87.10
2023-08-15T05:45:11.446Z,87.10
2023-08-15T05:47:39.558Z,87.10
2023-08-15T05:50:08.283Z,87.20
2023-08-15T05:52:36.433Z,87.20
2023-08-15T05:55:04.702Z,87.20
2023-08-15T05:57:32.796Z,87.20
2023-08-15T06:00:02.280Z,87.20
2023-08-15T06:02:36.052Z,87.40
2023-08-15T06:05:04.349Z,87.40
2023-08-15T06:07:32.550Z,87.20
2023-08-15T06:10:00.732Z,87.20
2023-08-15T06:12:28.832Z,87.20
2023-08-15T06:14:57.005Z,87.30
2023-08-15T06:17:26.738Z,87.30
2023-08-15T06:19:55.454Z,87.30
2023-08-15T06:22:23.548Z,87.40
2023-08-15T06:24:51.719Z,87.50
2023-08-15T06:27:20.223Z,87.50
2023-08-15T06:29:48.621Z,87.50
2023-08-15T06:32:28.305Z,87.50
2023-08-15T06:34:56.464Z,87.50
2023-08-15T06:37:24.869Z,87.50
2023-08-15T06:39:53.118Z,87.60
2023-08-15T06:42:21.231Z,87.60
2023-08-15T06:45:05.057Z,87.60
2023-08-15T06:47:34.602Z,87.60
2023-08-15T06:50:02.766Z,87.50
2023-08-15T06:52:30.889Z,87.50
2023-08-15T06:54:58.991Z,87.70
2023-08-15T06:57:27.139Z,87.50
2023-08-15T06:59:55.378Z,87.30
2023-08-15T07:02:23.606Z,87.40
2023-08-15T07:04:53.066Z,87.40
2023-08-15T07:07:21.374Z,87.40
2023-08-15T07:09:50.275Z,87.30
2023-08-15T07:12:19.935Z,87.30
2023-08-15T07:14:48.376Z,87.20
2023-08-15T07:17:16.522Z,87.30
2023-08-15T07:19:44.639Z,87.40
2023-08-15T07:22:14.430Z,87.50
2023-08-15T07:24:42.622Z,87.40
2023-08-15T07:27:10.759Z,87.50
2023-08-15T07:29:38.908Z,87.60
2023-08-15T07:32:07.607Z,87.60
2023-08-15T07:34:37.153Z,87.50
2023-08-15T07:37:05.325Z,87.40
2023-08-15T07:39:34.824Z,87.50
2023-08-15T07:42:02.957Z,87.40
2023-08-15T07:44:32.143Z,87.50
2023-08-15T07:47:00.278Z,87.50
2023-08-15T07:49:28.390Z,87.50
2023-08-15T07:51:57.303Z,87.60
2023-08-15T07:54:25.572Z,87.50
2023-08-15T07:56:55.047Z,87.60
2023-08-15T07:59:23.634Z,87.70
2023-08-15T08:01:51.784Z,87.80
2023-08-15T08:04:20.292Z,87.80
2023-08-15T08:06:49.826Z,87.90
2023-08-15T08:09:18.632Z,87.90
2023-08-15T08:11:46.772Z,87.90
2023-08-15T08:14:16.297Z,87.90
2023-08-15T08:16:45.045Z,88.00
2023-08-15T08:19:19.203Z,87.90
2023-08-15T08:21:47.370Z,87.90
2023-08-15T08:24:15.473Z,88.00
2023-08-15T08:26:44.090Z,88.00
2023-08-15T08:29:12.628Z,88.00
2023-08-15T08:31:42.410Z,88.00
2023-08-15T08:34:15.101Z,88.00
2023-08-15T08:36:43.370Z,88.00
2023-08-15T08:39:21.504Z,87.80
2023-08-15T08:41:54.140Z,87.60
2023-08-15T08:44:22.268Z,87.50
2023-08-15T08:46:51.756Z,87.50
2023-08-15T08:49:19.864Z,87.50
2023-08-15T08:51:47.996Z,87.50
2023-08-15T08:54:19.202Z,87.60
2023-08-15T08:56:47.604Z,87.70
2023-08-15T08:59:16.580Z,87.80
2023-08-15T09:01:44.750Z,87.80
2023-08-15T09:04:14.251Z,87.60
2023-08-15T09:06:42.362Z,87.80
2023-08-15T09:09:11.899Z,87.70
2023-08-15T09:11:41.499Z,87.80
2023-08-15T09:14:09.900Z,87.90
2023-08-15T09:16:38.247Z,87.70
2023-08-15T09:19:06.535Z,87.80
2023-08-15T09:21:36.253Z,87.90
2023-08-15T09:24:05.576Z,88.00
2023-08-15T09:26:34.824Z,88.00
2023-08-15T09:29:04.000Z,88.00
2023-08-15T09:31:32.257Z,88.00
2023-08-15T09:34:00.452Z,88.10
2023-08-15T09:36:31.515Z,88.10
2023-08-15T09:39:01.332Z,88.10
2023-08-15T09:41:29.524Z,88.10
2023-08-15T09:43:57.661Z,87.90
2023-08-15T09:46:26.003Z,87.90
2023-08-15T09:48:55.228Z,88.00
2023-08-15T09:51:23.368Z,88.10
2023-08-15T09:53:51.460Z,88.10
2023-08-15T09:56:21.691Z,88.20
2023-08-15T09:58:50.145Z,88.20
2023-08-15T10:01:18.350Z,88.20
2023-08-15T10:03:46.511Z,88.20
2023-08-15T10:06:14.908Z,88.30
2023-08-15T10:08:43.229Z,88.30
2023-08-15T10:11:13.332Z,88.30
2023-08-15T10:13:43.501Z,88.40
2023-08-15T10:16:13.747Z,88.30
2023-08-15T10:18:52.479Z,88.30
2023-08-15T10:21:20.625Z,88.40
2023-08-15T10:23:48.897Z,88.40
2023-08-15T10:26:17.093Z,88.40
2023-08-15T10:28:47.775Z,88.40
2023-08-15T10:31:16.072Z,88.50
2023-08-15T10:33:46.155Z,88.50
2023-08-15T10:36:14.470Z,88.50
2023-08-15T10:38:44.877Z,88.50
2023-08-15T10:41:16.796Z,88.60
2023-08-15T10:43:49.476Z,88.60
2023-08-15T10:46:18.471Z,88.60
2023-08-15T10:49:01.835Z,88.60
2023-08-15T10:51:32.865Z,88.60
2023-08-15T10:54:02.158Z,88.60
2023-08-15T10:56:30.897Z,88.60
2023-08-15T10:59:00.628Z,88.70
2023-08-15T11:01:29.446Z,88.70
2023-08-15T11:03:58.200Z,88.70
2023-08-15T11:06:26.391Z,88.70
2023-08-15T11:08:55.296Z,88.70
2023-08-15T11:11:23.440Z,88.70
2023-08-15T11:13:52.279Z,88.80
2023-08-15T11:16:22.543Z,88.80
2023-08-15T11:18:50.933Z,88.80
2023-08-15T11:21:19.815Z,88.80
2023-08-15T11:23:50.250Z,88.80
2023-08-15T11:26:19.585Z,88.80
2023-08-15T11:28:47.777Z,88.80
2023-08-15T11:31:22.370Z,88.90
2023-08-15T11:33:53.265Z,88.90
2023-08-15T11:36:22.372Z,88.90
2023-08-15T11:38:50.491Z,88.90
2023-08-15T11:41:18.667Z,88.90
2023-08-15T11:43:46.794Z,88.90
2023-08-15T11:46:15.157Z,88.90
2023-08-15T11:48:45.324Z,88.90
2023-08-15T11:51:23.924Z,88.90
2023-08-15T11:53:52.485Z,88.90
2023-08-15T11:56:20.622Z,88.90
2023-08-15T11:58:48.982Z,88.90
2023-08-15T12:01:17.231Z,88.80
2023-08-15T12:03:45.440Z,88.90
2023-08-15T12:06:15.712Z,88.90
2023-08-15T12:08:47.053Z,89.00
2023-08-15T12:11:16.850Z,89.00
2023-08-15T12:13:44.985Z,88.90
2023-08-15T12:16:13.406Z,88.90
2023-08-15T12:18:42.164Z,88.80
2023-08-15T12:21:13.596Z,88.80
2023-08-15T12:23:42.311Z,88.90
2023-08-15T12:26:11.792Z,88.90
2023-08-15T12:28:39.922Z,88.80
2023-08-15T12:31:08.073Z,88.90
2023-08-15T12:33:46.742Z,88.90
2023-08-15T12:36:16.160Z,88.90
2023-08-15T12:38:44.831Z,89.00
2023-08-15T12:41:15.743Z,89.00
2023-08-15T12:43:44.188Z,89.00
2023-08-15T12:46:12.610Z,89.00
2023-08-15T12:48:40.972Z,89.00
2023-08-15T12:51:09.923Z,89.00
2023-08-15T12:53:38.080Z,89.00
2023-08-15T12:56:06.354Z,89.00
2023-08-15T12:58:35.922Z,89.00
2023-08-15T13:01:04.109Z,89.00
2023-08-15T13:03:32.542Z,89.00
2023-08-15T13:06:00.748Z,89.00
2023-08-15T13:08:28.863Z,89.00
2023-08-15T13:10:57.516Z,89.10
2023-08-15T13:13:25.841Z,89.00
2023-08-15T13:15:55.389Z,89.00
2023-08-15T13:18:23.632Z,89.10
2023-08-15T13:20:51.860Z,89.10
2023-08-15T13:23:20.265Z,89.10
2023-08-15T13:25:48.474Z,89.20
2023-08-15T13:28:16.590Z,89.00
2023-08-15T13:30:45.300Z,89.10
2023-08-15T13:33:15.065Z,89.10
2023-08-15T13:35:45.270Z,89.10
2023-08-15T13:38:14.943Z,89.10
2023-08-15T13:40:43.116Z,89.10
2023-08-15T13:43:11.204Z,89.20
2023-08-15T13:45:39.339Z,89.10
2023-08-15T13:48:17.169Z,89.20
2023-08-15T13:50:45.654Z,89.30
2023-08-15T13:53:13.777Z,89.20
2023-08-15T13:55:42.090Z,89.20
2023-08-15T13:58:10.277Z,89.20
2023-08-15T14:00:38.489Z,89.20
2023-08-15T14:03:07.123Z,89.20
2023-08-15T14:05:38.815Z,89.20
2023-08-15T14:08:08.059Z,89.30
2023-08-15T14:10:36.404Z,89.30
2023-08-15T14:13:04.597Z,89.30
2023-08-15T14:15:32.751Z,89.30
2023-08-15T14:18:00.878Z,89.30
2023-08-15T14:20:29.014Z,89.30
2023-08-15T14:22:59.255Z,89.40
2023-08-15T14:25:27.443Z,89.30
2023-08-15T14:27:55.537Z,89.40
2023-08-15T14:30:23.655Z,89.30
2023-08-15T14:32:51.866Z,89.30
2023-08-15T14:35:20.397Z,89.30
2023-08-15T14:37:48.586Z,89.40
2023-08-15T14:40:21.777Z,89.40
2023-08-15T14:42:50.256Z,89.40
2023-08-15T14:45:18.352Z,89.40
2023-08-15T14:47:46.451Z,89.40
2023-08-15T14:50:14.758Z,89.30
2023-08-15T14:52:43.439Z,89.40
2023-08-15T14:55:12.456Z,89.40
2023-08-15T14:57:42.012Z,89.40
2023-08-15T15:00:10.839Z,89.40
2023-08-15T15:02:39.350Z,89.40
2023-08-15T15:05:08.606Z,89.40
2023-08-15T15:07:36.736Z,89.40
2023-08-15T15:10:05.035Z,89.50
2023-08-15T15:12:33.921Z,89.50
2023-08-15T15:15:03.785Z,89.50
2023-08-15T15:17:31.952Z,89.50
2023-08-15T15:20:00.302Z,89.50
2023-08-15T15:22:28.440Z,89.60
2023-08-15T15:24:56.572Z,89.50
2023-08-15T15:27:24.738Z,89.50
2023-08-15T15:29:52.864Z,89.50
2023-08-15T15:32:22.581Z,89.50
2023-08-15T15:34:55.532Z,89.60
2023-08-15T15:37:24.218Z,89.60
2023-08-15T15:39:52.379Z,89.60
2023-08-15T15:42:20.759Z,89.70
2023-08-15T15:44:49.029Z,89.70
2023-08-15T15:47:17.212Z,89.70
2023-08-15T15:49:46.758Z,89.70
2023-08-15T15:52:14.933Z,89.70
2023-08-15T15:54:43.064Z,89.80
2023-08-15T15:57:13.602Z,89.70
2023-08-15T15:59:41.710Z,89.70
2023-08-15T16:02:09.850Z,89.80
2023-08-15T16:04:38.637Z,89.80
2023-08-15T16:07:10.715Z,89.80
2023-08-15T16:09:39.069Z,89.80
2023-08-15T16:12:07.654Z,89.80
2023-08-15T16:14:35.787Z,89.80
2023-08-15T16:17:04.685Z,89.80
2023-08-15T16:19:32.802Z,89.90
2023-08-15T16:22:01.580Z,89.90
2023-08-15T16:24:31.080Z,89.90
2023-08-15T16:26:59.260Z,89.90
2023-08-15T16:29:29.170Z,89.90
2023-08-15T16:31:57.348Z,90.00
2023-08-15T16:34:25.562Z,89.90
2023-08-15T16:36:53.673Z,89.90
2023-08-15T16:39:21.796Z,90.00
2023-08-15T16:41:51.267Z,90.00
2023-08-15T16:44:20.327Z,90.00
2023-08-15T16:46:48.687Z,90.10
2023-08-15T16:49:16.834Z,90.10
2023-08-15T16:51:44.951Z,90.10
2023-08-15T16:54:13.080Z,90.10
2023-08-15T16:56:41.248Z,90.10
2023-08-15T16:59:10.722Z,90.00
2023-08-15T17:01:38.876Z,90.10
2023-08-15T17:04:07.435Z,90.10
2023-08-15T17:06:35.883Z,90.10
2023-08-15T17:09:04.816Z,90.10
2023-08-15T17:11:33.046Z,90.20
2023-08-15T17:14:01.227Z,90.10
2023-08-15T17:16:30.747Z,90.20
2023-08-15T17:18:59.029Z,90.10
2023-08-15T17:21:31.684Z,90.10
2023-08-15T17:23:59.769Z,90.20
2023-08-15T17:26:28.019Z,90.10
2023-08-15T17:28:56.117Z,90.20
2023-08-15T17:31:24.302Z,90.10
2023-08-15T17:33:53.895Z,90.20
2023-08-15T17:36:22.023Z,90.20
2023-08-15T17:38:50.199Z,90.10
2023-08-15T17:41:18.322Z,90.20
2023-08-15T17:43:46.450Z,90.20
2023-08-15T17:46:19.714Z,90.20
2023-08-15T17:48:47.852Z,90.20
2023-08-15T17:51:17.297Z,90.20
2023-08-15T17:53:46.222Z,90.20
2023-08-15T17:56:14.366Z,90.20
2023-08-15T17:58:48.944Z,90.20
2023-08-15T18:01:17.130Z,90.20
2023-08-15T18:03:50.299Z,90.20
2023-08-15T18:06:20.097Z,90.20
2023-08-15T18:08:48.204Z,90.20
2023-08-15T18:11:16.318Z,90.20
2023-08-15T18:13:44.428Z,90.20
2023-08-15T18:16:12.583Z,90.20
2023-08-15T18:18:40.715Z,90.20
2023-08-15T18:21:08.859Z,90.20
2023-08-15T18:23:38.882Z,90.20
2023-08-15T18:26:08.613Z,90.20
2023-08-15T18:28:37.098Z,90.20
2023-08-15T18:31:05.245Z,90.20
2023-08-15T18:33:33.689Z,90.20
2023-08-15T18:36:01.866Z,90.20
2023-08-15T18:38:30.977Z,90.20
2023-08-15T18:41:00.601Z,90.20
2023-08-15T18:43:28.739Z,90.20
2023-08-15T18:45:56.936Z,90.20
2023-08-15T18:48:26.785Z,90.20
2023-08-15T18:50:55.690Z,90.20
2023-08-15T18:53:25.697Z,90.20
2023-08-15T18:55:53.844Z,90.20
2023-08-15T18:58:23.372Z,90.20
2023-08-15T19:00:51.528Z,90.20
2023-08-15T19:03:19.988Z,90.20
2023-08-15T19:05:48.167Z,90.20
2023-08-15T19:08:16.572Z,90.20
2023-08-15T19:10:44.673Z,90.20
2023-08-15T19:13:12.848Z,90.20
2023-08-15T19:15:42.369Z,90.20
2023-08-15T19:18:10.629Z,90.30
2023-08-15T19:20:39.564Z,90.30
2023-08-15T19:23:07.721Z,90.20
2023-08-15T19:25:35.865Z,90.30
2023-08-15T19:28:04.029Z,90.20
2023-08-15T19:30:40.913Z,90.20
2023-08-15T19:33:10.515Z,90.10
2023-08-15T19:35:39.884Z,89.90
2023-08-15T19:38:08.022Z,89.60
2023-08-15T19:40:36.265Z,89.40
2023-08-15T19:43:07.802Z,89.30
2023-08-15T19:45:35.946Z,89.20
2023-08-15T19:48:04.206Z,89.10
2023-08-15T19:50:33.776Z,89.00
2023-08-15T19:53:01.913Z,88.90
2023-08-15T19:55:31.134Z,88.90
2023-08-15T19:58:00.110Z,88.90
2023-08-15T20:00:28.253Z,89.00
2023-08-15T20:02:56.420Z,89.30
2023-08-15T20:05:24.556Z,89.60
2023-08-15T20:07:54.053Z,89.80
2023-08-15T20:10:22.183Z,89.70
2023-08-15T20:12:50.315Z,89.70
2023-08-15T20:15:18.745Z,89.80
2023-08-15T20:17:46.868Z,89.80
2023-08-15T20:20:15.025Z,89.90
2023-08-15T20:22:43.101Z,89.90
2023-08-15T20:25:12.886Z,89.90
2023-08-15T20:27:40.988Z,89.90
2023-08-15T20:30:10.670Z,89.90
2023-08-15T20:32:38.807Z,90.00
2023-08-15T20:35:10.036Z,90.00
2023-08-15T20:37:38.259Z,90.00
2023-08-15T20:40:07.379Z,89.90
2023-08-15T20:42:37.261Z,89.70
2023-08-15T20:45:06.381Z,89.50
2023-08-15T20:47:37.895Z,89.50
2023-08-15T20:50:06.603Z,89.50
2023-08-15T20:52:34.751Z,89.50
2023-08-15T20:55:03.043Z,89.50
2023-08-15T20:57:31.270Z,89.50
2023-08-15T21:00:01.053Z,89.40
2023-08-15T21:02:29.260Z,89.30
2023-08-15T21:04:57.453Z,89.10
2023-08-15T21:07:25.796Z,89.00
2023-08-15T21:09:54.080Z,88.70
2023-08-15T21:12:22.374Z,88.70
2023-08-15T21:14:50.838Z,88.60
2023-08-15T21:17:20.363Z,88.50
2023-08-15T21:19:48.486Z,88.40
2023-08-15T21:22:16.587Z,88.30
2023-08-15T21:24:44.898Z,88.30
2023-08-15T21:27:13.062Z,88.30
2023-08-15T21:29:41.243Z,88.30
2023-08-15T21:32:09.740Z,88.20
2023-08-15T21:34:39.717Z,88.20
2023-08-15T21:37:08.976Z,88.20
2023-08-15T21:39:38.841Z,88.10
2023-08-15T21:42:07.230Z,88.00
2023-08-15T21:44:35.359Z,88.00
2023-08-15T21:47:03.499Z,87.90
2023-08-15T21:49:31.632Z,88.00
2023-08-15T21:52:03.175Z,87.90
2023-08-15T21:54:31.318Z,87.90
2023-08-15T21:57:04.059Z,87.80
2023-08-15T21:59:32.257Z,87.80
2023-08-15T22:02:01.204Z,87.80
2023-08-15T22:04:31.913Z,87.70
2023-08-15T22:07:01.439Z,87.70
2023-08-15T22:09:29.602Z,87.80
2023-08-15T22:11:57.726Z,87.80
2023-08-15T22:14:25.906Z,87.70
2023-08-15T22:16:54.083Z,87.70
2023-08-15T22:19:22.420Z,87.70
2023-08-15T22:21:50.611Z,87.70
2023-08-15T22:24:21.574Z,87.70
2023-08-15T22:26:49.822Z,87.70
2023-08-15T22:29:17.994Z,87.80
2023-08-15T22:31:46.545Z,87.80
2023-08-15T22:34:16.091Z,87.70
2023-08-15T22:36:45.432Z,87.70
2023-08-15T22:39:14.214Z,87.80
2023-08-15T22:41:43.975Z,87.70
2023-08-15T22:44:12.124Z,87.70
2023-08-15T22:46:40.273Z,87.70
2023-08-15T22:49:08.503Z,87.60
2023-08-15T22:51:36.635Z,87.60
2023-08-15T22:54:05.079Z,87.70
2023-08-15T22:56:33.206Z,87.70
2023-08-15T22:59:02.734Z,87.60
2023-08-15T23:01:30.926Z,87.60
2023-08-15T23:04:00.653Z,87.70
2023-08-15T23:06:28.807Z,87.70
2023-08-15T23:08:56.965Z,87.60
2023-08-15T23:11:25.139Z,87.60
2023-08-15T23:13:53.269Z,87.70
2023-08-15T23:16:22.744Z,87.70
2023-08-15T23:18:50.884Z,87.80
2023-08-15T23:21:19.029Z,87.70
2023-08-15T23:23:47.139Z,87.70
2023-08-15T23:26:15.316Z,87.80
2023-08-15T23:28:43.413Z,87.80
2023-08-15T23:31:14.031Z,87.80
2023-08-15T23:33:44.616Z,87.80
2023-08-15T23:36:13.288Z,87.80
2023-08-15T23:38:41.417Z,87.80
2023-08-15T23:41:09.775Z,87.80
2023-08-15T23:43:37.890Z,87.80
2023-08-15T23:46:06.093Z,87.80
2023-08-15T23:48:34.226Z,87.80
2023-08-15T23:51:04.217Z,87.80
2023-08-15T23:53:32.338Z,87.80
2023-08-15T23:56:00.468Z,87.80
2023-08-15T23:58:28.565Z,87.80
